Old Westbury, New York
Current Conditions -  °F | °C
As of 11:53 AM on Saturday 22 Nov 2014 (Local Time) from KFRG Reporting Station
Clear Clear  
Wind Chill: 30°   Ceiling: Unl
Heat Index: 39°   Visibility: 10mi
Dew Point: 14°   Wind: 17mph
Humidity: 36%   Direction: 260°W
Pressure: 30.39"   Gusts: 24mph
Location:  40.79°N, 73.6°W
Report Text: KFRG 221653Z 26015G21KT 10SM CLR 04/M10 A3039 RMK AO2 SLP292 T00391100
Loading
Personal Weather Stations






























Interactive Weather Map New forecast layout! Learn more

10-Day Weather Forecast

Advertisements
Track Severe Weather on mobile